Main page
METAR-TAF:

METAR-TAF

Airports :

Iași International Airport

Iasi, Romania

latitude: 47-10N, longitude: 027-38E, elevation: 102 m

Current weather observation

The report was made 35 minutes ago, at 16:30 UTC
Wind 6 kt from the North/Northeast
Temperature 29°C
Humidity 29%
Pressure 1015 hPa
Visibility 10 km or more
no clouds below 1500 m and no cumulonimbus

METAR: LRIA 091630Z 02006KT CAVOK 29/09 Q1015

Time: 20:05 (17:05 UTC)

Forecast

The report was made 3 hours and 5 minutes ago, at 14:00 UTC
Forecast valid from 09 at 15 UTC to 10 at 00 UTC
Wind 10 kt from the North
Visibility 10 km or more
no clouds below 1500 m and no cumulonimbus
Becoming
from 09 at 18 UTC to 09 at 20 UTC
Wind 4 kt from variable directions

TAF: LRIA 091400Z 0915/1000 36010KT CAVOK BECMG 0918/0920 VRB04KT

Weather observations and forecasts of more than 4000 airports (METAR and TAF reports).

The available stations are represented by yellow and red dots on the map.

Hover mouse over dot to see the name of the station.

Then click to see weather observations and forecasts.

To change the map : click on the green buttons with a black cross to zoom in, on the green button with a dash to zoom out, or on the green arrows for adjacent maps.


METAR-TAF: